Bewolking Meer informatie Parkstad Weather Satellite


Neerslagradar Meer informatie Parkstad Rain Snow Radar


Onweersbuien Meer informatie Parkstad Lighntning


24/7 Weercamera Meer informatie Parkstad Weathercam


Natuurbrandrisico
CBI







Het weer levert geen direct gevaar op in Parkstad.    Er zijn geen waarschuwingen afgegeven voor Parkstad (045)

METAR rapporten vliegvelden

   
EHBK - Beek Nederland
Gewijzigd: 10-07-2020 08:25
Bewolking  
Bewolking  
   Wind: ZW 22.2 km/h
Wind: ZW 22.2 km/h
Temperatuur: 17°C
Dauwpunt: 14°C
Vochtigheid: 83%
Barometer: 1009 hPa
Satelliet beelden: Bewolking
Zicht: meer dan 10 km
Bewolking: Bewolking 366 m
EHBK 100625Z AUTO 23012KT 200V270 9999 OVC012 17/14 Q1009 NOSIG
EHBK - Maastricht Nederland
Gewijzigd: 10-07-2020 08:25
Bewolking  
Bewolking  
   Wind: ZW 22.2 km/h
Wind: ZW 22.2 km/h
Temperatuur: 17°C
Dauwpunt: 14°C
Vochtigheid: 83%
Barometer: 1009 hPa
Satelliet beelden: Bewolking
Zicht: meer dan 10 km
Bewolking: Bewolking 366 m
EHBK 100625Z AUTO 23012KT 200V270 9999 OVC012 17/14 Q1009 NOSIG
EBLG - Liège België
Gewijzigd: 10-07-2020 08:20
Grotendeels bewolkt  
Grotendeels bewolkt  
   Wind: ZW 22.2 km/h
Wind: ZW 22.2 km/h
Temperatuur: 16°C
Dauwpunt: 14°C
Vochtigheid: 88%
Barometer: 1010 hPa
Satelliet beelden: Grotendeels bewolkt
Zicht: meer dan 10 km
Bewolking: Licht bewolkt 305 m,
Grotendeels bewolkt 396 m
EBLG 100620Z 23012KT 9999 FEW010 BKN013 16/14 Q1010 TEMPO BKN009
EDDK - Köln/Bonn Duitsland
Gewijzigd: 10-07-2020 08:20
Grotendeels bewolkt  
Grotendeels bewolkt  
   Wind: Westen 22.2 km/h
Wind: Westen 22.2 km/h
Temperatuur: 18°C
Dauwpunt: 14°C
Vochtigheid: 78%
Barometer: 1009 hPa
Satelliet beelden: Grotendeels bewolkt
Zicht: meer dan 10 km
Bewolking: Licht bewolkt 671 m,
Grotendeels bewolkt 853 m
EDDK 100620Z 26012KT 9999 FEW022 BKN028 18/14 Q1009 NOSIG
EDDL - Düsseldorf Duitsland
Gewijzigd: 10-07-2020 08:20
Grotendeels bewolkt  
Grotendeels bewolkt  
   Wind: WZW 25.9 km/h
Wind: WZW 25.9 km/h
Temperatuur: 18°C
Dauwpunt: 14°C
Vochtigheid: 78%
Barometer: 1008 hPa
Satelliet beelden: Grotendeels bewolkt
Zicht: meer dan 10 km
Bewolking: Grotendeels bewolkt 610 m
EDDL 100620Z 24014KT 9999 BKN020 18/14 Q1008 BECMG BKN013
EHEH - Eindhoven Nederland
Gewijzigd: 10-07-2020 08:40
Nevel, Grotendeels bewolkt  
Nevel, Grotendeels bewolkt  
   Wind: WZW 20.4 km/h
Wind: WZW 20.4 km/h
Temperatuur: 16°C
Dauwpunt: 16°C
Vochtigheid: 100%
Barometer: 1008 hPa
Satelliet beelden: Grotendeels bewolkt
Zicht: 5 km
Bewolking: Licht bewolkt 122 m,
Grotendeels bewolkt 213 m,
Grotendeels bewolkt 244 m
EHEH 100640Z AUTO 24011KT 200V280 5000 BR FEW004 BKN007 BKN008 16/16 Q1008 GRN 25012G22KT 6000 -RADZ SCT006 BKN008 OVC012 TEMPO 2000 DZRA FEW003 SCT004 OVC006
ELLX - Luxemburg Luxemburg
Gewijzigd: 10-07-2020 08:20
Grotendeels bewolkt  
Grotendeels bewolkt  
   Wind: Westen 20.4 km/h
Wind: Westen 20.4 km/h
Temperatuur: 16°C
Dauwpunt: 13°C
Vochtigheid: 83%
Barometer: 1012 hPa
Satelliet beelden: Grotendeels bewolkt
Zicht: meer dan 10 km
Bewolking: Grotendeels bewolkt 396 m
ELLX 100620Z 26011KT 9999 BKN013 16/13 Q1012 TEMPO BKN020
EGLL - London England
Gewijzigd: 10-07-2020 08:20
Grotendeels bewolkt  
Grotendeels bewolkt  
   Wind: NW 7.4 km/h
Wind: NW 7.4 km/h
Temperatuur: 13°C
Dauwpunt: 12°C
Vochtigheid: 94%
Barometer: 1016 hPa
Satelliet beelden: Grotendeels bewolkt
Zicht: meer dan 10 km
Bewolking: Grotendeels bewolkt 457 m
EGLL 100620Z AUTO 31004KT 280V350 9999 BKN015 13/12 Q1016 TEMPO BKN012
EBAW - Antwerpen België
Gewijzigd: 10-07-2020 08:20
Lichte (mot)regen, Grotendeels bewolkt  
Lichte (mot)regen, Grotendeels bewolkt  
   Wind: Westen 14.8 km/h
Wind: Westen 14.8 km/h
Temperatuur: 16°C
Dauwpunt: 15°C
Vochtigheid: 94%
Barometer: 1010 hPa
Satelliet beelden: Grotendeels bewolkt
Zicht: 6 km
Bewolking: Grotendeels bewolkt 152 m
EBAW 100620Z 28008KT 250V310 6000 -DZ BKN005 16/15 Q1010 BECMG 8000 NSW BKN008
EBOS - Oostende België
Gewijzigd: 10-07-2020 08:20
Grotendeels bewolkt  
Grotendeels bewolkt  
   Wind: NNW 22.2 km/h
Wind: NNW 22.2 km/h
Temperatuur: 15°C
Dauwpunt: 12°C
Vochtigheid: 82%
Barometer: 1012 hPa
Satelliet beelden: Grotendeels bewolkt
Zicht: meer dan 10 km
Bewolking: Gedeeltelijk bewolkt 396 m,
Grotendeels bewolkt 1158 m
EBOS 100620Z 34012KT 9999 SCT013 BKN038 15/12 Q1012 TEMPO 4500 -DZ BKN007
LEAL - La Nucia Spanje
Gewijzigd: 10-07-2020 08:30
Helder  
Helder  
   Wind: varieert 3.7 km/h
Wind: varieert 3.7 km/h
Temperatuur: 24°C
Dauwpunt: 17°C
Vochtigheid: 65%
Barometer: 1014 hPa
Zicht: meer dan 10 km
Bewolking: Helder
LEAL 100630Z VRB02KT CAVOK 24/17 Q1014 NOSIG
TNCA - Oranjestad Aruba
Gewijzigd: 10-07-2020 08:00
Licht bewolkt  
Licht bewolkt  
   Wind: Oosten 33.3 km/h
Wind: Oosten 33.3 km/h
Temperatuur: 28°C
Gevoelstemperatuur: 32°C
Dauwpunt: 24°C
Vochtigheid: 79%
Barometer: 1013 hPa
Satelliet beelden: Licht bewolkt
Zicht: meer dan 10 km
Bewolking: Licht bewolkt 549 m
TNCA 100600Z 09018KT 9999 FEW018 28/24 Q1013 NOSIG
TNCC - Willemstad Curacao
Gewijzigd: 10-07-2020 08:00
Licht bewolkt  
Licht bewolkt  
   Wind: OZO 22.2 km/h
Wind: OZO 22.2 km/h
Temperatuur: 28°C
Gevoelstemperatuur: 31°C
Dauwpunt: 23°C
Vochtigheid: 74%
Barometer: 1013 hPa
Satelliet beelden: Licht bewolkt
Zicht: meer dan 10 km
Bewolking: Licht bewolkt 488 m
TNCC 100600Z 11012KT 9999 FEW016 28/23 Q1013 NOSIG
MTPP - Port au Prince Haitië
Gewijzigd: 10-07-2020 07:59
  
  
   Wind: OZO 9.3 km/h
Wind: OZO 9.3 km/h
Temperatuur: 26°C
Dauwpunt: 23°C
Vochtigheid: 84%
Barometer: 1015 hPa
Zicht: 7 km
MTPP 100559Z AUTO 12005KT 7000 ////// 26/23 Q1015 A2999 NOSIG
ENVA - Trondheim Noorwegen
Gewijzigd: 10-07-2020 08:20
Grotendeels bewolkt  
Grotendeels bewolkt  
   Wind: Oosten 7.4 km/h
Wind: Oosten 7.4 km/h
Temperatuur: 12°C
Dauwpunt: 8°C
Vochtigheid: 77%
Barometer: 1010 hPa
Satelliet beelden: Grotendeels bewolkt
Zicht: meer dan 10 km
Bewolking: Licht bewolkt 1311 m,
Grotendeels bewolkt 1951 m
ENVA 100620Z 10004KT 070V130 9999 FEW043 BKN064 12/08 Q1010 NOSIG RMK WIND 670FT VRB03KT
ENBO - Bodø Noorwegen
Gewijzigd: 10-07-2020 08:20
Grotendeels bewolkt  
Grotendeels bewolkt  
   Wind: WZW 5.6 km/h
Wind: WZW 5.6 km/h
Temperatuur: 12°C
Dauwpunt: 8°C
Vochtigheid: 77%
Barometer: 1008 hPa
Satelliet beelden: Grotendeels bewolkt
Zicht: meer dan 10 km
Bewolking: Licht bewolkt 610 m,
Grotendeels bewolkt 1524 m
ENBO 100620Z 24003KT 180V280 9999 FEW020 BKN050 12/08 Q1008
ETNG - Geilenkirchen Duitsland
Gewijzigd: 10-07-2020 07:50
Grotendeels bewolkt  
Grotendeels bewolkt  
   Wind: WZW 20.4 km/h
Wind: WZW 20.4 km/h
Temperatuur: 17°C
Dauwpunt: 14°C
Vochtigheid: 83%
Barometer: 1009 hPa
Satelliet beelden: Grotendeels bewolkt
Zicht: meer dan 10 km
Bewolking: Grotendeels bewolkt 488 m
ETNG 100550Z 24011KT 9999 BKN016 17/14 Q1009 TEMPO BKN010
 

Script ontwikkeld door  Saratoga-weather.org Aangepast voor de template door  Weerstation Leuven

U vindt ons ook hier:

Het Weer Aktueel

WOW Nederland KNMI

Vereniging voor Weerkunde en Klimatologie

UK Met Office Weather Observation Website (WOW)

WeatherCloud

Weather Underground

Awekas

Weatherlink IP

HAMweather, WeatherForYou, PWS Weather

Citizen Weather Observer Program (CWOP)

Apparatuur in gebruik:

Hardwareleverancier
Weerhuisje

Weerstation
Vantage Pro2+ UV

Weercomputer's
alix3d2 & wl330n

Weerprogramma's
Smartbedded

Satelliet NOAA's
WRX137 & KX137

Satelliet Eumetsat
Ayecka SR1 & Triax

Bliksemdetectie
Boltek StormTracker

Webleverancier
F-Service

Weerhuisje

Vantage Pro2+ UV

alix3d2 & wl330n

Smartbedded

WRX137 & KX137

Ayecka SR1 & Triax

Boltek StormTracker

F-Service